»·PEaware :: N524ML KMRY-KSBP

N524ML :: KMRY-KSBP

FLIGHT INFORMATION

Flight Status: Arrived
Operator: Privately registered:
United States
More flights under this callsign
Pilot: Max L. (14194)
Aircraft: CESSNA 310
(C310)
More flights by this aircraft type
Origin: KMRY Monterey Peninsula
United States
Destination: KSBP San Luis Co Regl
United States
More flights between these airports :: More routes between these airports
Route:
File this flight plan on PilotEdge
Remarks: VFR Down Coastline
Altitude:
(Current/Filed)
5,500ft
Speed:
(Current/Filed)
180kts
Departed: 13-Jan-19 03:08 PM
Arrived: 13-Jan-19 03:48 PM
Distance/Time
Traveled:
100nm/0:40
Distance/Time
To Go:
Arrived

Flight Plot

Page will automatically refresh every two minutes.

Flight plan parsing failed; only flown route is shown


Map Options




Map Legend


Flown Route
Filed Route
Departure Airport
Arrival Airport
Navaid (VOR, NDB)
Fix

Horizontal Profiles

Position Reports

Time Latitude Longitude Heading Altitude Ground
Speed
13-Jan-19 14:55 36.588688 -121.854537 338 170ft 0kts
13-Jan-19 14:56 36.588688 -121.854537 338 170ft 0kts
13-Jan-19 14:57 36.588688 -121.854537 338 170ft 0kts
13-Jan-19 14:58 36.588688 -121.854537 338 170ft 0kts
13-Jan-19 14:59 36.588688 -121.854537 338 170ft 0kts
13-Jan-19 15:00 36.588688 -121.854537 338 170ft 0kts
13-Jan-19 15:01 36.588447 -121.851197 112 170ft 20kts
13-Jan-19 15:02 36.585933 -121.844101 112 170ft 23kts
13-Jan-19 15:03 36.583382 -121.836600 113 170ft 22kts
13-Jan-19 15:04 36.582830 -121.834689 94 170ft 0kts
13-Jan-19 15:05 36.582830 -121.834689 94 170ft 0kts
13-Jan-19 15:06 36.583522 -121.834141 290 170ft 16kts
13-Jan-19 15:07 36.593933 -121.868007 273 1302ft 123kts
13-Jan-19 15:08 36.573247 -121.896228 211 2654ft 152kts
13-Jan-19 15:09 36.537964 -121.923593 211 4403ft 149kts
13-Jan-19 15:10 36.497968 -121.925291 160 5506ft 179kts
13-Jan-19 15:11 36.450762 -121.897744 158 5486ft 180kts
13-Jan-19 15:12 36.404793 -121.871431 158 5491ft 186kts
13-Jan-19 15:13 36.357389 -121.844490 158 5490ft 186kts
13-Jan-19 15:14 36.310424 -121.817814 158 5490ft 185kts
13-Jan-19 15:15 36.263672 -121.791317 158 5490ft 185kts
13-Jan-19 15:16 36.216851 -121.764808 158 5490ft 185kts
13-Jan-19 15:17 36.170033 -121.738336 158 5490ft 185kts
13-Jan-19 15:18 36.123255 -121.711923 158 5489ft 185kts
13-Jan-19 15:19 36.076260 -121.685396 158 5489ft 185kts
13-Jan-19 15:20 36.029352 -121.658938 158 5489ft 184kts
13-Jan-19 15:21 35.982579 -121.632624 158 5489ft 183kts
13-Jan-19 15:22 35.936036 -121.606475 158 5491ft 184kts
13-Jan-19 15:23 35.888837 -121.580003 159 5497ft 187kts
13-Jan-19 15:24 35.840670 -121.553038 159 5501ft 193kts
13-Jan-19 15:25 35.791028 -121.525276 158 5503ft 197kts
13-Jan-19 15:26 35.740794 -121.497197 158 5505ft 199kts
13-Jan-19 15:27 35.690001 -121.468897 152 5506ft 200kts
13-Jan-19 15:28 35.652189 -121.423358 122 5507ft 191kts
13-Jan-19 15:29 35.621112 -121.370166 122 5507ft 191kts
13-Jan-19 15:31 35.589627 -121.317350 123 5509ft 191kts
13-Jan-19 15:32 35.557930 -121.264549 123 5509ft 191kts
13-Jan-19 15:33 35.526380 -121.212038 123 5509ft 191kts
13-Jan-19 15:34 35.494754 -121.159572 123 5509ft 190kts
13-Jan-19 15:35 35.463437 -121.107685 124 5509ft 187kts
13-Jan-19 15:36 35.432931 -121.057146 124 5509ft 185kts
13-Jan-19 15:37 35.402365 -121.006586 125 5509ft 183kts
13-Jan-19 15:38 35.372763 -120.957720 126 4836ft 177kts
13-Jan-19 15:39 35.343690 -120.909645 125 4126ft 173kts
13-Jan-19 15:40 35.328759 -120.853670 107 3514ft 168kts
13-Jan-19 15:41 35.316233 -120.801232 110 3515ft 159kts
13-Jan-19 15:42 35.300316 -120.754051 117 2783ft 124kts
13-Jan-19 15:43 35.284129 -120.720783 124 2275ft 92kts
13-Jan-19 15:44 35.268988 -120.702254 181 1703ft 73kts
13-Jan-19 15:45 35.273731 -120.708726 102 1875ft 87kts
13-Jan-19 15:46 35.260533 -120.681587 124 1329ft 92kts
13-Jan-19 15:47 35.246321 -120.656696 124 541ft 80kts
13-Jan-19 15:48 35.239875 -120.643992 47 216ft 2kts
13-Jan-19 15:49 35.239900 -120.643955 55 216ft 2kts
13-Jan-19 15:49 35.238232 -120.640880 124 216ft 18kts
13-Jan-19 15:51 35.236842 -120.638263 313 215ft 10kts
13-Jan-19 15:52 35.238292 -120.640082 278 216ft 0kts

Navigation Log

Ident Type
Flight plan parsing failed, navigation log unavailable